sensor_id;sensor_type;location;lat;lon;timestamp;P1;durP1;ratioP1;P2;durP2;ratioP2
3465;SDS011;1747;48.884;9.160;2023-04-03T00:01:26;3.00;;;1.77;;
3465;SDS011;1747;48.884;9.160;2023-04-03T00:03:53;2.95;;;2.15;;
3465;SDS011;1747;48.884;9.160;2023-04-03T00:06:20;2.47;;;1.42;;
3465;SDS011;1747;48.884;9.160;2023-04-03T00:08:48;3.65;;;1.77;;
3465;SDS011;1747;48.884;9.160;2023-04-03T00:11:15;2.78;;;1.75;;
3465;SDS011;1747;48.884;9.160;2023-04-03T00:13:44;3.58;;;1.60;;
3465;SDS011;1747;48.884;9.160;2023-04-03T00:16:11;3.30;;;1.98;;
3465;SDS011;1747;48.884;9.160;2023-04-03T00:18:38;4.35;;;2.13;;
3465;SDS011;1747;48.884;9.160;2023-04-03T00:21:05;3.08;;;1.50;;
3465;SDS011;1747;48.884;9.160;2023-04-03T00:23:32;3.08;;;1.90;;
3465;SDS011;1747;48.884;9.160;2023-04-03T00:25:59;3.03;;;1.70;;
3465;SDS011;1747;48.884;9.160;2023-04-03T00:28:26;2.35;;;1.50;;
3465;SDS011;1747;48.884;9.160;2023-04-03T00:30:55;3.15;;;1.75;;
3465;SDS011;1747;48.884;9.160;2023-04-03T00:33:21;3.28;;;1.90;;
3465;SDS011;1747;48.884;9.160;2023-04-03T00:35:49;2.25;;;1.70;;
3465;SDS011;1747;48.884;9.160;2023-04-03T00:38:16;2.97;;;1.92;;
3465;SDS011;1747;48.884;9.160;2023-04-03T00:40:45;5.15;;;1.77;;
3465;SDS011;1747;48.884;9.160;2023-04-03T00:43:14;2.88;;;1.63;;
3465;SDS011;1747;48.884;9.160;2023-04-03T00:45:42;3.10;;;1.65;;
3465;SDS011;1747;48.884;9.160;2023-04-03T00:48:11;4.55;;;2.10;;
3465;SDS011;1747;48.884;9.160;2023-04-03T00:50:42;3.45;;;1.85;;
3465;SDS011;1747;48.884;9.160;2023-04-03T00:53:11;4.25;;;1.80;;
3465;SDS011;1747;48.884;9.160;2023-04-03T00:55:39;4.72;;;1.83;;
3465;SDS011;1747;48.884;9.160;2023-04-03T00:58:08;4.80;;;1.73;;
3465;SDS011;1747;48.884;9.160;2023-04-03T01:00:35;3.83;;;1.83;;
3465;SDS011;1747;48.884;9.160;2023-04-03T01:03:06;2.72;;;1.67;;
3465;SDS011;1747;48.884;9.160;2023-04-03T01:05:34;6.32;;;1.90;;
3465;SDS011;1747;48.884;9.160;2023-04-03T01:08:01;3.42;;;1.50;;
3465;SDS011;1747;48.884;9.160;2023-04-03T01:10:28;3.17;;;2.00;;
3465;SDS011;1747;48.884;9.160;2023-04-03T01:12:55;3.30;;;1.90;;
3465;SDS011;1747;48.884;9.160;2023-04-03T01:15:23;2.90;;;1.95;;
3465;SDS011;1747;48.884;9.160;2023-04-03T01:17:51;4.38;;;1.80;;
3465;SDS011;1747;48.884;9.160;2023-04-03T01:20:42;3.88;;;1.80;;
3465;SDS011;1747;48.884;9.160;2023-04-03T01:23:26;4.03;;;1.80;;
3465;SDS011;1747;48.884;9.160;2023-04-03T01:26:00;5.45;;;2.10;;
3465;SDS011;1747;48.884;9.160;2023-04-03T01:28:29;3.13;;;1.90;;
3465;SDS011;1747;48.884;9.160;2023-04-03T01:30:59;3.47;;;1.65;;
3465;SDS011;1747;48.884;9.160;2023-04-03T01:33:34;2.20;;;1.73;;
3465;SDS011;1747;48.884;9.160;2023-04-03T01:36:01;3.95;;;2.05;;
3465;SDS011;1747;48.884;9.160;2023-04-03T01:38:29;2.00;;;1.65;;
3465;SDS011;1747;48.884;9.160;2023-04-03T01:40:56;4.45;;;2.28;;
3465;SDS011;1747;48.884;9.160;2023-04-03T01:43:23;4.20;;;2.05;;
3465;SDS011;1747;48.884;9.160;2023-04-03T01:45:49;5.97;;;1.98;;
3465;SDS011;1747;48.884;9.160;2023-04-03T01:48:19;3.28;;;2.10;;
3465;SDS011;1747;48.884;9.160;2023-04-03T01:50:47;2.53;;;1.80;;
3465;SDS011;1747;48.884;9.160;2023-04-03T01:53:14;4.00;;;2.00;;
3465;SDS011;1747;48.884;9.160;2023-04-03T01:55:41;3.75;;;1.63;;
3465;SDS011;1747;48.884;9.160;2023-04-03T01:58:08;5.35;;;2.17;;
3465;SDS011;1747;48.884;9.160;2023-04-03T02:00:35;4.35;;;2.13;;
3465;SDS011;1747;48.884;9.160;2023-04-03T02:03:01;4.32;;;1.80;;
3465;SDS011;1747;48.884;9.160;2023-04-03T02:05:29;2.97;;;2.10;;
3465;SDS011;1747;48.884;9.160;2023-04-03T02:07:57;2.78;;;1.90;;
3465;SDS011;1747;48.884;9.160;2023-04-03T02:10:24;4.68;;;1.90;;
3465;SDS011;1747;48.884;9.160;2023-04-03T02:12:51;3.47;;;2.13;;
3465;SDS011;1747;48.884;9.160;2023-04-03T02:15:17;4.13;;;2.25;;
3465;SDS011;1747;48.884;9.160;2023-04-03T02:17:45;2.80;;;1.70;;
3465;SDS011;1747;48.884;9.160;2023-04-03T02:20:11;3.72;;;1.95;;
3465;SDS011;1747;48.884;9.160;2023-04-03T02:22:38;2.58;;;2.00;;
3465;SDS011;1747;48.884;9.160;2023-04-03T02:25:07;6.18;;;2.00;;
3465;SDS011;1747;48.884;9.160;2023-04-03T02:27:34;2.90;;;2.03;;
3465;SDS011;1747;48.884;9.160;2023-04-03T02:30:01;3.60;;;2.30;;
3465;SDS011;1747;48.884;9.160;2023-04-03T02:32:28;2.00;;;1.65;;
3465;SDS011;1747;48.884;9.160;2023-04-03T02:34:55;3.22;;;2.03;;
3465;SDS011;1747;48.884;9.160;2023-04-03T02:37:22;3.47;;;1.77;;
3465;SDS011;1747;48.884;9.160;2023-04-03T02:39:48;2.67;;;1.70;;
3465;SDS011;1747;48.884;9.160;2023-04-03T02:42:17;2.75;;;1.95;;
3465;SDS011;1747;48.884;9.160;2023-04-03T02:44:44;8.07;;;2.30;;
3465;SDS011;1747;48.884;9.160;2023-04-03T02:47:10;2.50;;;1.73;;
3465;SDS011;1747;48.884;9.160;2023-04-03T02:49:37;3.33;;;1.92;;
3465;SDS011;1747;48.884;9.160;2023-04-03T02:52:04;2.42;;;1.48;;
3465;SDS011;1747;48.884;9.160;2023-04-03T02:54:31;3.40;;;1.85;;
3465;SDS011;1747;48.884;9.160;2023-04-03T02:56:57;2.90;;;1.50;;
3465;SDS011;1747;48.884;9.160;2023-04-03T02:59:26;3.05;;;1.83;;
3465;SDS011;1747;48.884;9.160;2023-04-03T03:01:52;3.05;;;1.58;;
3465;SDS011;1747;48.884;9.160;2023-04-03T03:04:20;3.58;;;1.92;;
3465;SDS011;1747;48.884;9.160;2023-04-03T03:06:47;2.38;;;1.40;;
3465;SDS011;1747;48.884;9.160;2023-04-03T03:09:14;3.03;;;1.85;;
3465;SDS011;1747;48.884;9.160;2023-04-03T03:11:41;3.90;;;1.52;;
3465;SDS011;1747;48.884;9.160;2023-04-03T03:14:08;3.33;;;1.60;;
3465;SDS011;1747;48.884;9.160;2023-04-03T03:16:36;2.20;;;1.58;;
3465;SDS011;1747;48.884;9.160;2023-04-03T03:19:03;2.33;;;1.73;;
3465;SDS011;1747;48.884;9.160;2023-04-03T03:21:31;2.92;;;1.80;;
3465;SDS011;1747;48.884;9.160;2023-04-03T03:23:58;2.33;;;1.50;;
3465;SDS011;1747;48.884;9.160;2023-04-03T03:26:25;2.50;;;1.77;;
3465;SDS011;1747;48.884;9.160;2023-04-03T03:28:51;2.83;;;1.52;;
3465;SDS011;1747;48.884;9.160;2023-04-03T03:31:18;2.38;;;1.55;;
3465;SDS011;1747;48.884;9.160;2023-04-03T03:33:46;3.58;;;1.50;;
3465;SDS011;1747;48.884;9.160;2023-04-03T03:36:13;5.20;;;1.40;;
3465;SDS011;1747;48.884;9.160;2023-04-03T03:38:40;3.30;;;1.70;;
3465;SDS011;1747;48.884;9.160;2023-04-03T03:41:07;2.28;;;1.65;;
3465;SDS011;1747;48.884;9.160;2023-04-03T03:43:34;2.95;;;1.65;;
3465;SDS011;1747;48.884;9.160;2023-04-03T03:46:00;2.28;;;1.80;;
3465;SDS011;1747;48.884;9.160;2023-04-03T03:48:27;2.58;;;1.52;;
3465;SDS011;1747;48.884;9.160;2023-04-03T03:50:55;1.95;;;1.52;;
3465;SDS011;1747;48.884;9.160;2023-04-03T03:53:22;2.20;;;1.60;;
3465;SDS011;1747;48.884;9.160;2023-04-03T03:55:49;3.63;;;1.55;;
3465;SDS011;1747;48.884;9.160;2023-04-03T03:58:16;2.95;;;1.80;;
3465;SDS011;1747;48.884;9.160;2023-04-03T04:00:42;3.30;;;1.92;;
3465;SDS011;1747;48.884;9.160;2023-04-03T04:03:09;2.78;;;1.55;;
3465;SDS011;1747;48.884;9.160;2023-04-03T04:05:36;3.42;;;2.10;;
3465;SDS011;1747;48.884;9.160;2023-04-03T04:08:04;3.17;;;1.90;;
3465;SDS011;1747;48.884;9.160;2023-04-03T04:10:31;2.28;;;1.70;;
3465;SDS011;1747;48.884;9.160;2023-04-03T04:12:58;3.72;;;1.90;;
3465;SDS011;1747;48.884;9.160;2023-04-03T04:15:25;3.30;;;1.60;;
3465;SDS011;1747;48.884;9.160;2023-04-03T04:17:52;2.92;;;2.08;;
3465;SDS011;1747;48.884;9.160;2023-04-03T04:20:19;2.53;;;1.80;;
3465;SDS011;1747;48.884;9.160;2023-04-03T04:22:46;3.60;;;1.70;;
3465;SDS011;1747;48.884;9.160;2023-04-03T04:25:14;3.28;;;2.10;;
3465;SDS011;1747;48.884;9.160;2023-04-03T04:27:41;3.70;;;1.90;;
3465;SDS011;1747;48.884;9.160;2023-04-03T04:30:08;3.58;;;1.95;;
3465;SDS011;1747;48.884;9.160;2023-04-03T04:32:36;2.40;;;1.90;;
3465;SDS011;1747;48.884;9.160;2023-04-03T04:35:03;2.90;;;1.90;;
3465;SDS011;1747;48.884;9.160;2023-04-03T04:37:31;2.00;;;1.80;;
3465;SDS011;1747;48.884;9.160;2023-04-03T04:39:58;3.17;;;1.70;;
3465;SDS011;1747;48.884;9.160;2023-04-03T04:42:26;2.55;;;1.77;;
3465;SDS011;1747;48.884;9.160;2023-04-03T04:44:53;1.40;;;1.30;;
3465;SDS011;1747;48.884;9.160;2023-04-03T04:47:19;3.10;;;1.83;;
3465;SDS011;1747;48.884;9.160;2023-04-03T04:49:46;2.33;;;1.65;;
3465;SDS011;1747;48.884;9.160;2023-04-03T04:52:13;2.80;;;1.60;;
3465;SDS011;1747;48.884;9.160;2023-04-03T04:54:40;2.92;;;1.63;;
3465;SDS011;1747;48.884;9.160;2023-04-03T04:57:07;2.33;;;1.85;;
3465;SDS011;1747;48.884;9.160;2023-04-03T04:59:36;2.63;;;1.70;;
3465;SDS011;1747;48.884;9.160;2023-04-03T05:02:03;4.13;;;1.60;;
3465;SDS011;1747;48.884;9.160;2023-04-03T05:04:30;4.03;;;1.83;;
3465;SDS011;1747;48.884;9.160;2023-04-03T05:06:58;4.45;;;2.90;;
3465;SDS011;1747;48.884;9.160;2023-04-03T05:09:25;2.67;;;1.80;;
3465;SDS011;1747;48.884;9.160;2023-04-03T05:11:52;3.00;;;1.73;;
3465;SDS011;1747;48.884;9.160;2023-04-03T05:14:19;2.35;;;1.80;;
3465;SDS011;1747;48.884;9.160;2023-04-03T05:16:47;2.40;;;1.50;;
3465;SDS011;1747;48.884;9.160;2023-04-03T05:19:17;3.50;;;1.85;;
3465;SDS011;1747;48.884;9.160;2023-04-03T05:21:44;2.47;;;1.75;;
3465;SDS011;1747;48.884;9.160;2023-04-03T05:24:11;5.15;;;1.70;;
3465;SDS011;1747;48.884;9.160;2023-04-03T05:26:38;1.90;;;1.45;;
3465;SDS011;1747;48.884;9.160;2023-04-03T05:29:05;2.28;;;1.42;;
3465;SDS011;1747;48.884;9.160;2023-04-03T05:31:32;2.63;;;1.77;;
3465;SDS011;1747;48.884;9.160;2023-04-03T05:34:00;2.45;;;1.60;;
3465;SDS011;1747;48.884;9.160;2023-04-03T05:36:27;2.60;;;1.50;;
3465;SDS011;1747;48.884;9.160;2023-04-03T05:38:54;2.03;;;1.67;;
3465;SDS011;1747;48.884;9.160;2023-04-03T05:41:22;3.13;;;1.73;;
3465;SDS011;1747;48.884;9.160;2023-04-03T05:43:49;2.10;;;1.60;;
3465;SDS011;1747;48.884;9.160;2023-04-03T05:46:16;3.45;;;1.85;;
3465;SDS011;1747;48.884;9.160;2023-04-03T05:48:45;2.88;;;1.85;;
3465;SDS011;1747;48.884;9.160;2023-04-03T05:51:15;3.17;;;1.58;;
3465;SDS011;1747;48.884;9.160;2023-04-03T05:53:43;5.15;;;1.98;;
3465;SDS011;1747;48.884;9.160;2023-04-03T05:56:11;7.03;;;2.08;;
3465;SDS011;1747;48.884;9.160;2023-04-03T05:58:38;2.63;;;1.50;;
3465;SDS011;1747;48.884;9.160;2023-04-03T06:01:05;3.67;;;1.50;;
3465;SDS011;1747;48.884;9.160;2023-04-03T06:03:32;2.65;;;1.75;;
3465;SDS011;1747;48.884;9.160;2023-04-03T06:06:00;3.13;;;1.90;;
3465;SDS011;1747;48.884;9.160;2023-04-03T06:08:30;2.78;;;1.70;;
3465;SDS011;1747;48.884;9.160;2023-04-03T06:10:58;1.40;;;1.27;;
3465;SDS011;1747;48.884;9.160;2023-04-03T06:13:24;2.55;;;1.98;;
3465;SDS011;1747;48.884;9.160;2023-04-03T06:15:51;2.17;;;1.80;;
3465;SDS011;1747;48.884;9.160;2023-04-03T06:18:18;2.67;;;1.60;;
3465;SDS011;1747;48.884;9.160;2023-04-03T06:20:45;3.38;;;1.70;;
3465;SDS011;1747;48.884;9.160;2023-04-03T06:23:12;4.57;;;1.90;;
3465;SDS011;1747;48.884;9.160;2023-04-03T06:25:40;3.90;;;1.88;;
3465;SDS011;1747;48.884;9.160;2023-04-03T06:28:07;2.10;;;1.60;;
3465;SDS011;1747;48.884;9.160;2023-04-03T06:30:35;2.78;;;1.65;;
3465;SDS011;1747;48.884;9.160;2023-04-03T06:33:02;4.03;;;2.15;;
3465;SDS011;1747;48.884;9.160;2023-04-03T06:35:29;3.70;;;1.85;;
3465;SDS011;1747;48.884;9.160;2023-04-03T06:37:56;3.28;;;1.60;;
3465;SDS011;1747;48.884;9.160;2023-04-03T06:40:23;3.70;;;2.10;;
3465;SDS011;1747;48.884;9.160;2023-04-03T06:42:53;3.33;;;1.52;;
3465;SDS011;1747;48.884;9.160;2023-04-03T06:45:20;4.03;;;1.85;;
3465;SDS011;1747;48.884;9.160;2023-04-03T06:47:47;2.67;;;1.88;;
3465;SDS011;1747;48.884;9.160;2023-04-03T06:50:14;2.60;;;1.88;;
3465;SDS011;1747;48.884;9.160;2023-04-03T06:52:41;2.85;;;1.95;;
3465;SDS011;1747;48.884;9.160;2023-04-03T06:55:08;3.83;;;1.90;;
3465;SDS011;1747;48.884;9.160;2023-04-03T06:57:36;3.65;;;1.90;;
3465;SDS011;1747;48.884;9.160;2023-04-03T07:00:07;3.25;;;1.65;;
3465;SDS011;1747;48.884;9.160;2023-04-03T07:02:35;2.97;;;1.95;;
3465;SDS011;1747;48.884;9.160;2023-04-03T07:05:02;3.28;;;2.05;;
3465;SDS011;1747;48.884;9.160;2023-04-03T07:07:30;3.90;;;1.88;;
3465;SDS011;1747;48.884;9.160;2023-04-03T07:09:59;3.40;;;2.15;;
3465;SDS011;1747;48.884;9.160;2023-04-03T07:12:25;2.83;;;1.85;;
3465;SDS011;1747;48.884;9.160;2023-04-03T07:14:52;2.88;;;2.10;;
3465;SDS011;1747;48.884;9.160;2023-04-03T07:17:21;5.18;;;2.22;;
3465;SDS011;1747;48.884;9.160;2023-04-03T07:19:48;4.80;;;2.30;;
3465;SDS011;1747;48.884;9.160;2023-04-03T07:22:15;2.90;;;2.10;;
3465;SDS011;1747;48.884;9.160;2023-04-03T07:24:42;4.38;;;2.10;;
3465;SDS011;1747;48.884;9.160;2023-04-03T07:27:08;2.47;;;1.92;;
3465;SDS011;1747;48.884;9.160;2023-04-03T07:29:37;4.15;;;2.40;;
3465;SDS011;1747;48.884;9.160;2023-04-03T07:32:05;4.00;;;2.50;;
3465;SDS011;1747;48.884;9.160;2023-04-03T07:34:33;3.90;;;2.10;;
3465;SDS011;1747;48.884;9.160;2023-04-03T07:37:00;2.97;;;1.85;;
3465;SDS011;1747;48.884;9.160;2023-04-03T07:39:27;5.70;;;2.35;;
3465;SDS011;1747;48.884;9.160;2023-04-03T07:41:54;3.47;;;2.13;;
3465;SDS011;1747;48.884;9.160;2023-04-03T07:44:21;4.43;;;2.10;;
3465;SDS011;1747;48.884;9.160;2023-04-03T07:46:48;5.03;;;2.22;;
3465;SDS011;1747;48.884;9.160;2023-04-03T07:49:15;5.85;;;2.10;;
3465;SDS011;1747;48.884;9.160;2023-04-03T07:51:44;3.13;;;2.17;;
3465;SDS011;1747;48.884;9.160;2023-04-03T07:54:11;4.10;;;2.10;;
3465;SDS011;1747;48.884;9.160;2023-04-03T07:56:38;3.33;;;2.17;;
3465;SDS011;1747;48.884;9.160;2023-04-03T07:59:05;4.97;;;2.17;;
3465;SDS011;1747;48.884;9.160;2023-04-03T08:01:32;3.92;;;2.10;;
3465;SDS011;1747;48.884;9.160;2023-04-03T08:03:59;4.63;;;2.47;;
3465;SDS011;1747;48.884;9.160;2023-04-03T08:06:26;3.63;;;2.20;;
3465;SDS011;1747;48.884;9.160;2023-04-03T08:08:55;6.28;;;2.33;;
3465;SDS011;1747;48.884;9.160;2023-04-03T08:11:22;7.97;;;2.40;;
3465;SDS011;1747;48.884;9.160;2023-04-03T08:13:51;3.72;;;2.10;;
3465;SDS011;1747;48.884;9.160;2023-04-03T08:16:20;3.83;;;2.13;;
3465;SDS011;1747;48.884;9.160;2023-04-03T08:18:48;3.75;;;2.17;;
3465;SDS011;1747;48.884;9.160;2023-04-03T08:21:15;3.80;;;2.45;;
3465;SDS011;1747;48.884;9.160;2023-04-03T08:23:42;2.58;;;2.17;;
3465;SDS011;1747;48.884;9.160;2023-04-03T08:26:11;6.78;;;2.65;;
3465;SDS011;1747;48.884;9.160;2023-04-03T08:28:39;4.68;;;2.00;;
3465;SDS011;1747;48.884;9.160;2023-04-03T08:31:08;5.07;;;2.13;;
3465;SDS011;1747;48.884;9.160;2023-04-03T08:33:37;4.45;;;2.03;;
3465;SDS011;1747;48.884;9.160;2023-04-03T08:36:05;6.50;;;2.13;;
3465;SDS011;1747;48.884;9.160;2023-04-03T08:38:33;3.35;;;2.05;;
3465;SDS011;1747;48.884;9.160;2023-04-03T08:41:09;4.63;;;1.80;;
3465;SDS011;1747;48.884;9.160;2023-04-03T08:43:43;4.22;;;2.40;;
3465;SDS011;1747;48.884;9.160;2023-04-03T08:46:22;5.03;;;2.22;;
3465;SDS011;1747;48.884;9.160;2023-04-03T08:48:54;4.63;;;2.20;;
3465;SDS011;1747;48.884;9.160;2023-04-03T08:51:24;4.28;;;2.30;;
3465;SDS011;1747;48.884;9.160;2023-04-03T08:53:55;6.72;;;2.30;;
3465;SDS011;1747;48.884;9.160;2023-04-03T08:56:28;3.45;;;2.00;;
3465;SDS011;1747;48.884;9.160;2023-04-03T08:58:56;4.22;;;1.98;;
3465;SDS011;1747;48.884;9.160;2023-04-03T09:01:27;6.40;;;1.92;;
3465;SDS011;1747;48.884;9.160;2023-04-03T09:03:59;4.45;;;2.08;;
3465;SDS011;1747;48.884;9.160;2023-04-03T09:06:28;4.05;;;2.33;;
3465;SDS011;1747;48.884;9.160;2023-04-03T09:09:02;3.63;;;2.30;;
3465;SDS011;1747;48.884;9.160;2023-04-03T09:11:43;5.57;;;2.47;;
3465;SDS011;1747;48.884;9.160;2023-04-03T09:14:19;3.63;;;2.05;;
3465;SDS011;1747;48.884;9.160;2023-04-03T09:16:52;4.32;;;2.28;;
3465;SDS011;1747;48.884;9.160;2023-04-03T09:19:24;4.18;;;2.17;;
3465;SDS011;1747;48.884;9.160;2023-04-03T09:22:09;4.82;;;1.98;;
3465;SDS011;1747;48.884;9.160;2023-04-03T09:24:42;2.45;;;1.70;;
3465;SDS011;1747;48.884;9.160;2023-04-03T09:27:12;7.50;;;2.05;;
3465;SDS011;1747;48.884;9.160;2023-04-03T09:29:40;7.03;;;2.17;;
3465;SDS011;1747;48.884;9.160;2023-04-03T09:32:22;3.63;;;1.92;;
3465;SDS011;1747;48.884;9.160;2023-04-03T09:34:53;3.33;;;1.83;;
3465;SDS011;1747;48.884;9.160;2023-04-03T09:37:33;3.03;;;1.60;;
3465;SDS011;1747;48.884;9.160;2023-04-03T09:40:03;2.92;;;1.75;;
3465;SDS011;1747;48.884;9.160;2023-04-03T09:42:34;2.47;;;1.73;;
3465;SDS011;1747;48.884;9.160;2023-04-03T09:45:18;2.60;;;1.70;;
3465;SDS011;1747;48.884;9.160;2023-04-03T09:47:49;2.20;;;1.38;;
3465;SDS011;1747;48.884;9.160;2023-04-03T09:50:31;2.40;;;1.45;;
3465;SDS011;1747;48.884;9.160;2023-04-03T09:52:59;3.33;;;1.60;;
3465;SDS011;1747;48.884;9.160;2023-04-03T09:55:32;3.65;;;1.60;;
3465;SDS011;1747;48.884;9.160;2023-04-03T09:58:22;4.10;;;1.45;;
3465;SDS011;1747;48.884;9.160;2023-04-03T10:00:53;3.10;;;2.17;;
3465;SDS011;1747;48.884;9.160;2023-04-03T10:03:24;4.00;;;1.90;;
3465;SDS011;1747;48.884;9.160;2023-04-03T10:05:53;6.18;;;1.77;;
3465;SDS011;1747;48.884;9.160;2023-04-03T10:08:23;3.17;;;1.52;;
3465;SDS011;1747;48.884;9.160;2023-04-03T10:11:06;2.78;;;1.73;;
3465;SDS011;1747;48.884;9.160;2023-04-03T10:13:36;3.20;;;1.55;;
3465;SDS011;1747;48.884;9.160;2023-04-03T10:16:17;2.13;;;1.35;;
3465;SDS011;1747;48.884;9.160;2023-04-03T10:18:49;5.45;;;1.50;;
3465;SDS011;1747;48.884;9.160;2023-04-03T10:21:27;4.10;;;1.67;;
3465;SDS011;1747;48.884;9.160;2023-04-03T10:24:03;3.65;;;1.60;;
3465;SDS011;1747;48.884;9.160;2023-04-03T10:26:39;2.10;;;1.40;;
3465;SDS011;1747;48.884;9.160;2023-04-03T10:29:18;3.35;;;1.30;;
3465;SDS011;1747;48.884;9.160;2023-04-03T10:31:56;1.70;;;1.50;;
3465;SDS011;1747;48.884;9.160;2023-04-03T10:34:29;2.20;;;1.15;;
3465;SDS011;1747;48.884;9.160;2023-04-03T10:37:04;3.38;;;1.50;;
3465;SDS011;1747;48.884;9.160;2023-04-03T10:39:40;3.88;;;1.42;;
3465;SDS011;1747;48.884;9.160;2023-04-03T10:42:17;2.72;;;1.48;;
3465;SDS011;1747;48.884;9.160;2023-04-03T10:45:06;3.47;;;1.30;;
3465;SDS011;1747;48.884;9.160;2023-04-03T10:47:46;2.85;;;1.00;;
3465;SDS011;1747;48.884;9.160;2023-04-03T10:50:25;2.67;;;1.20;;
3465;SDS011;1747;48.884;9.160;2023-04-03T10:52:57;1.98;;;1.20;;
3465;SDS011;1747;48.884;9.160;2023-04-03T10:55:35;2.75;;;1.38;;
3465;SDS011;1747;48.884;9.160;2023-04-03T10:58:05;2.25;;;1.15;;
3465;SDS011;1747;48.884;9.160;2023-04-03T11:00:38;3.22;;;1.30;;
3465;SDS011;1747;48.884;9.160;2023-04-03T11:03:10;2.95;;;1.50;;
3465;SDS011;1747;48.884;9.160;2023-04-03T11:05:49;1.77;;;1.33;;
3465;SDS011;1747;48.884;9.160;2023-04-03T11:08:23;3.83;;;1.35;;
3465;SDS011;1747;48.884;9.160;2023-04-03T11:10:53;3.88;;;1.52;;
3465;SDS011;1747;48.884;9.160;2023-04-03T11:13:24;1.67;;;1.13;;
3465;SDS011;1747;48.884;9.160;2023-04-03T11:15:58;4.05;;;1.42;;
3465;SDS011;1747;48.884;9.160;2023-04-03T11:18:25;2.25;;;1.25;;
3465;SDS011;1747;48.884;9.160;2023-04-03T11:20:57;2.85;;;1.20;;
3465;SDS011;1747;48.884;9.160;2023-04-03T11:23:30;2.92;;;1.27;;
3465;SDS011;1747;48.884;9.160;2023-04-03T11:26:09;1.85;;;1.10;;
3465;SDS011;1747;48.884;9.160;2023-04-03T11:28:37;4.45;;;1.30;;
3465;SDS011;1747;48.884;9.160;2023-04-03T11:31:10;3.40;;;1.60;;
3465;SDS011;1747;48.884;9.160;2023-04-03T11:33:48;3.03;;;1.20;;
3465;SDS011;1747;48.884;9.160;2023-04-03T11:36:23;2.25;;;1.10;;
3465;SDS011;1747;48.884;9.160;2023-04-03T11:38:52;1.50;;;1.40;;
3465;SDS011;1747;48.884;9.160;2023-04-03T11:41:25;3.47;;;1.38;;
3465;SDS011;1747;48.884;9.160;2023-04-03T11:43:58;2.53;;;1.30;;
3465;SDS011;1747;48.884;9.160;2023-04-03T11:46:50;4.10;;;1.38;;
3465;SDS011;1747;48.884;9.160;2023-04-03T11:55:41;2.78;;;1.35;;
3465;SDS011;1747;48.884;9.160;2023-04-03T11:58:24;3.50;;;1.17;;
3465;SDS011;1747;48.884;9.160;2023-04-03T12:01:03;1.65;;;1.10;;
3465;SDS011;1747;48.884;9.160;2023-04-03T12:12:36;2.38;;;1.20;;
3465;SDS011;1747;48.884;9.160;2023-04-03T12:15:16;2.20;;;1.42;;
3465;SDS011;1747;48.884;9.160;2023-04-03T12:17:50;2.63;;;1.33;;
3465;SDS011;1747;48.884;9.160;2023-04-03T12:23:23;2.33;;;1.30;;
3465;SDS011;1747;48.884;9.160;2023-04-03T12:25:52;1.75;;;1.10;;
3465;SDS011;1747;48.884;9.160;2023-04-03T12:28:28;2.63;;;1.27;;
3465;SDS011;1747;48.884;9.160;2023-04-03T12:30:55;2.70;;;1.55;;
3465;SDS011;1747;48.884;9.160;2023-04-03T12:33:28;2.40;;;1.42;;
3465;SDS011;1747;48.884;9.160;2023-04-03T12:36:08;3.13;;;1.35;;
3465;SDS011;1747;48.884;9.160;2023-04-03T12:38:46;1.85;;;1.30;;
3465;SDS011;1747;48.884;9.160;2023-04-03T12:41:36;2.25;;;1.20;;
3465;SDS011;1747;48.884;9.160;2023-04-03T12:47:19;1.50;;;1.15;;
3465;SDS011;1747;48.884;9.160;2023-04-03T12:49:49;1.83;;;1.30;;
3465;SDS011;1747;48.884;9.160;2023-04-03T12:52:22;2.03;;;1.15;;
3465;SDS011;1747;48.884;9.160;2023-04-03T12:55:07;3.50;;;1.45;;
3465;SDS011;1747;48.884;9.160;2023-04-03T12:57:44;2.28;;;1.15;;
3465;SDS011;1747;48.884;9.160;2023-04-03T13:00:30;4.10;;;1.33;;
3465;SDS011;1747;48.884;9.160;2023-04-03T13:02:59;2.95;;;1.33;;
3465;SDS011;1747;48.884;9.160;2023-04-03T13:05:27;2.60;;;1.38;;
3465;SDS011;1747;48.884;9.160;2023-04-03T13:07:58;3.20;;;1.58;;
3465;SDS011;1747;48.884;9.160;2023-04-03T13:10:28;2.42;;;1.45;;
3465;SDS011;1747;48.884;9.160;2023-04-03T13:12:57;2.08;;;1.27;;
3465;SDS011;1747;48.884;9.160;2023-04-03T13:15:26;3.10;;;1.55;;
3465;SDS011;1747;48.884;9.160;2023-04-03T13:17:54;2.28;;;1.45;;
3465;SDS011;1747;48.884;9.160;2023-04-03T13:20:23;3.03;;;1.40;;
3465;SDS011;1747;48.884;9.160;2023-04-03T13:22:53;2.17;;;1.40;;
3465;SDS011;1747;48.884;9.160;2023-04-03T13:25:26;3.22;;;1.70;;
3465;SDS011;1747;48.884;9.160;2023-04-03T13:27:56;3.47;;;1.55;;
3465;SDS011;1747;48.884;9.160;2023-04-03T13:30:29;2.38;;;1.50;;
3465;SDS011;1747;48.884;9.160;2023-04-03T13:32:58;2.92;;;1.42;;
3465;SDS011;1747;48.884;9.160;2023-04-03T13:35:28;1.73;;;1.27;;
3465;SDS011;1747;48.884;9.160;2023-04-03T13:37:59;3.55;;;1.70;;
3465;SDS011;1747;48.884;9.160;2023-04-03T13:40:30;2.15;;;1.40;;
3465;SDS011;1747;48.884;9.160;2023-04-03T13:43:04;2.90;;;1.48;;
3465;SDS011;1747;48.884;9.160;2023-04-03T13:45:33;2.58;;;1.33;;
3465;SDS011;1747;48.884;9.160;2023-04-03T13:48:08;2.08;;;1.23;;
3465;SDS011;1747;48.884;9.160;2023-04-03T13:53:23;2.65;;;1.30;;
3465;SDS011;1747;48.884;9.160;2023-04-03T13:55:55;5.45;;;1.52;;
3465;SDS011;1747;48.884;9.160;2023-04-03T13:58:24;2.95;;;1.48;;
3465;SDS011;1747;48.884;9.160;2023-04-03T14:00:53;2.60;;;1.52;;
3465;SDS011;1747;48.884;9.160;2023-04-03T14:03:22;2.38;;;1.33;;
3465;SDS011;1747;48.884;9.160;2023-04-03T14:05:51;2.17;;;1.48;;
3465;SDS011;1747;48.884;9.160;2023-04-03T14:08:18;3.65;;;1.45;;
3465;SDS011;1747;48.884;9.160;2023-04-03T14:10:47;2.88;;;1.60;;
3465;SDS011;1747;48.884;9.160;2023-04-03T14:13:15;2.10;;;1.48;;
3465;SDS011;1747;48.884;9.160;2023-04-03T14:15:43;4.82;;;1.83;;
3465;SDS011;1747;48.884;9.160;2023-04-03T14:18:13;2.10;;;1.60;;
3465;SDS011;1747;48.884;9.160;2023-04-03T14:20:41;3.40;;;1.30;;
3465;SDS011;1747;48.884;9.160;2023-04-03T14:23:08;1.88;;;1.20;;
3465;SDS011;1747;48.884;9.160;2023-04-03T14:25:35;4.97;;;1.40;;
3465;SDS011;1747;48.884;9.160;2023-04-03T14:28:12;3.22;;;1.67;;
3465;SDS011;1747;48.884;9.160;2023-04-03T14:30:42;1.30;;;1.20;;
3465;SDS011;1747;48.884;9.160;2023-04-03T14:33:10;2.63;;;1.40;;
3465;SDS011;1747;48.884;9.160;2023-04-03T14:35:41;3.05;;;1.48;;
3465;SDS011;1747;48.884;9.160;2023-04-03T14:38:12;3.17;;;1.50;;
3465;SDS011;1747;48.884;9.160;2023-04-03T14:40:47;2.08;;;1.42;;
3465;SDS011;1747;48.884;9.160;2023-04-03T14:43:16;1.80;;;1.20;;
3465;SDS011;1747;48.884;9.160;2023-04-03T14:45:42;1.75;;;1.25;;
3465;SDS011;1747;48.884;9.160;2023-04-03T14:48:09;2.58;;;1.40;;
3465;SDS011;1747;48.884;9.160;2023-04-03T14:50:42;2.92;;;1.40;;
3465;SDS011;1747;48.884;9.160;2023-04-03T14:53:10;1.67;;;1.20;;
3465;SDS011;1747;48.884;9.160;2023-04-03T14:55:39;2.65;;;1.33;;
3465;SDS011;1747;48.884;9.160;2023-04-03T14:58:08;1.77;;;1.20;;
3465;SDS011;1747;48.884;9.160;2023-04-03T15:00:39;2.42;;;1.50;;
3465;SDS011;1747;48.884;9.160;2023-04-03T15:03:08;5.47;;;1.58;;
3465;SDS011;1747;48.884;9.160;2023-04-03T15:05:38;2.72;;;1.40;;
3465;SDS011;1747;48.884;9.160;2023-04-03T15:08:08;3.20;;;1.50;;
3465;SDS011;1747;48.884;9.160;2023-04-03T15:10:43;2.80;;;1.50;;
3465;SDS011;1747;48.884;9.160;2023-04-03T15:13:10;4.15;;;1.35;;
3465;SDS011;1747;48.884;9.160;2023-04-03T15:15:40;4.43;;;1.80;;
3465;SDS011;1747;48.884;9.160;2023-04-03T15:18:10;1.75;;;1.27;;
3465;SDS011;1747;48.884;9.160;2023-04-03T15:20:41;2.25;;;1.13;;
3465;SDS011;1747;48.884;9.160;2023-04-03T15:23:09;2.67;;;1.35;;
3465;SDS011;1747;48.884;9.160;2023-04-03T15:25:37;2.05;;;1.30;;
3465;SDS011;1747;48.884;9.160;2023-04-03T15:28:04;1.95;;;1.48;;
3465;SDS011;1747;48.884;9.160;2023-04-03T15:30:32;2.05;;;1.30;;
3465;SDS011;1747;48.884;9.160;2023-04-03T15:33:04;3.40;;;1.25;;
3465;SDS011;1747;48.884;9.160;2023-04-03T15:35:30;2.50;;;1.33;;
3465;SDS011;1747;48.884;9.160;2023-04-03T15:37:57;1.75;;;1.23;;
3465;SDS011;1747;48.884;9.160;2023-04-03T15:40:24;2.55;;;1.73;;
3465;SDS011;1747;48.884;9.160;2023-04-03T15:42:51;2.17;;;1.50;;
3465;SDS011;1747;48.884;9.160;2023-04-03T15:45:18;2.20;;;1.35;;
3465;SDS011;1747;48.884;9.160;2023-04-03T15:47:46;3.40;;;1.40;;
3465;SDS011;1747;48.884;9.160;2023-04-03T15:50:14;2.92;;;1.63;;
3465;SDS011;1747;48.884;9.160;2023-04-03T15:52:41;1.65;;;1.15;;
3465;SDS011;1747;48.884;9.160;2023-04-03T15:55:08;2.00;;;1.23;;